Time;durP1;ratioP1;P1;durP2;ratioP2;P2;SDS_P1;SDS_P2;PMS_P1;PMS_P2;Temp;Humidity;BMP_temperature;BMP_pressure;BME280_temperature;BME280_humidity;BME280_pressure;Samples;Min_cycle;Max_cycle;Signal;HPM_P1;HPM_P2
2020/12/09 00:00:01;;;;;;;1999.90;999.90;;;;;;;;;;5065151;28;20082;-81
2020/12/09 00:02:27;;;;;;;1999.90;999.90;;;;;;;;;;5050574;28;20409;-80
2020/12/09 00:04:53;;;;;;;1999.90;999.90;;;;;;;;;;5053916;28;20028;-80
2020/12/09 00:07:19;;;;;;;1999.90;999.90;;;;;;;;;;5054034;28;20112;-80
2020/12/09 00:09:45;;;;;;;1999.90;999.90;;;;;;;;;;5053673;28;20033;-79
2020/12/09 00:12:11;;;;;;;1999.90;999.90;;;;;;;;;;5051178;28;20079;-80
2020/12/09 00:14:37;;;;;;;1999.90;999.90;;;;;;;;;;5053375;28;20037;-81
2020/12/09 00:17:03;;;;;;;1999.90;999.90;;;;;;;;;;5053270;28;20044;-80
2020/12/09 00:19:29;;;;;;;1999.90;999.90;;;;;;;;;;5051921;28;20567;-80
2020/12/09 00:21:55;;;;;;;1999.90;999.90;;;;;;;;;;5052635;28;20025;-80
2020/12/09 00:24:22;;;;;;;1999.90;999.90;;;;;;;;;;5053133;28;20044;-81
2020/12/09 00:26:48;;;;;;;1999.90;999.90;;;;;;;;;;5053413;28;20021;-80
2020/12/09 00:29:14;;;;;;;1999.90;999.90;;;;;;;;;;5053481;28;20483;-80
2020/12/09 00:31:40;;;;;;;1999.90;999.90;;;;;;;;;;5051626;28;20036;-80
2020/12/09 00:34:06;;;;;;;1999.90;999.90;;;;;;;;;;5052083;28;20402;-80
2020/12/09 00:36:32;;;;;;;1999.90;999.90;;;;;;;;;;5053560;28;20029;-81
2020/12/09 00:38:58;;;;;;;1999.90;999.90;;;;;;;;;;5052518;28;20112;-80
2020/12/09 00:41:25;;;;;;;1999.90;999.90;;;;;;;;;;5052977;28;20021;-80
2020/12/09 00:43:51;;;;;;;1999.90;999.90;;;;;;;;;;5052915;28;20032;-80
2020/12/09 00:46:21;;;;;;;1999.90;999.90;;;;;;;;;;5052716;28;20380;-79
2020/12/09 00:48:47;;;;;;;1999.90;999.90;;;;;;;;;;5051843;28;20025;-79
2020/12/09 00:51:17;;;;;;;1999.90;999.90;;;;;;;;;;5031609;28;20095;-79
2020/12/09 00:53:43;;;;;;;1999.90;999.90;;;;;;;;;;5052666;28;20092;-78
2020/12/09 00:56:10;;;;;;;1999.90;999.90;;;;;;;;;;5052520;28;20112;-79
2020/12/09 00:58:36;;;;;;;1999.90;999.90;;;;;;;;;;5067878;28;20079;-79
2020/12/09 01:01:03;;;;;;;1999.90;999.90;;;;;;;;;;5077241;28;20024;-79
2020/12/09 01:03:30;;;;;;;1999.90;999.90;;;;;;;;;;5083529;28;20033;-79
2020/12/09 01:05:56;;;;;;;1999.90;999.90;;;;;;;;;;5060133;28;20163;-80
2020/12/09 01:08:23;;;;;;;1999.90;999.90;;;;;;;;;;5071029;28;20016;-80
2020/12/09 01:10:49;;;;;;;1999.90;999.90;;;;;;;;;;5072248;28;20033;-78
2020/12/09 01:13:16;;;;;;;1999.90;999.90;;;;;;;;;;5075570;28;20080;-78
2020/12/09 01:15:42;;;;;;;1999.90;999.90;;;;;;;;;;5074070;28;20047;-80
2020/12/09 01:18:08;;;;;;;1999.90;999.90;;;;;;;;;;5071634;28;20028;-80
2020/12/09 01:20:34;;;;;;;1999.90;999.90;;;;;;;;;;5071938;28;20028;-80
2020/12/09 01:23:00;;;;;;;1999.90;999.90;;;;;;;;;;5072913;28;20024;-80
2020/12/09 01:25:26;;;;;;;1999.90;999.90;;;;;;;;;;5072228;28;20078;-80
2020/12/09 01:27:55;;;;;;;1999.90;999.90;;;;;;;;;;5072267;28;20029;-80
2020/12/09 01:30:21;;;;;;;1999.90;999.90;;;;;;;;;;5071027;28;20052;-80
2020/12/09 01:32:47;;;;;;;1999.90;999.90;;;;;;;;;;5071722;28;20077;-80
2020/12/09 01:35:13;;;;;;;1999.90;999.90;;;;;;;;;;5070805;28;20144;-80
2020/12/09 01:37:39;;;;;;;1999.90;999.90;;;;;;;;;;5053796;28;20589;-80
2020/12/09 01:40:05;;;;;;;1999.90;999.90;;;;;;;;;;5071355;28;20059;-80
2020/12/09 01:42:31;;;;;;;1999.90;999.90;;;;;;;;;;5071370;28;20039;-80
2020/12/09 01:44:57;;;;;;;1999.90;999.90;;;;;;;;;;5072022;28;20033;-80
2020/12/09 01:47:23;;;;;;;1999.90;999.90;;;;;;;;;;5071672;28;20035;-80
2020/12/09 01:49:49;;;;;;;1999.90;999.90;;;;;;;;;;5071933;28;20032;-80
2020/12/09 01:52:15;;;;;;;1999.90;999.90;;;;;;;;;;5070590;28;20039;-80
2020/12/09 01:54:42;;;;;;;1999.90;999.90;;;;;;;;;;5069782;28;20028;-80
2020/12/09 01:57:12;;;;;;;1999.90;999.90;;;;;;;;;;5070106;28;20035;-80
2020/12/09 01:59:38;;;;;;;1999.90;999.90;;;;;;;;;;5071169;28;20041;-80
2020/12/09 02:02:05;;;;;;;1999.90;999.90;;;;;;;;;;5069731;28;20025;-80
2020/12/09 02:04:31;;;;;;;1999.90;999.90;;;;;;;;;;5070292;28;20557;-80
2020/12/09 02:06:57;;;;;;;1999.90;999.90;;;;;;;;;;5068664;28;20074;-81
2020/12/09 02:09:24;;;;;;;1999.90;999.90;;;;;;;;;;5071744;28;20484;-80
2020/12/09 02:11:51;;;;;;;1999.90;999.90;;;;;;;;;;5070999;28;20411;-80
2020/12/09 02:14:17;;;;;;;1999.90;999.90;;;;;;;;;;5071475;28;20490;-80
2020/12/09 02:16:43;;;;;;;1999.90;999.90;;;;;;;;;;5071841;28;20037;-81
2020/12/09 02:19:09;;;;;;;1999.90;999.90;;;;;;;;;;5070755;28;20012;-80
2020/12/09 02:21:35;;;;;;;1999.90;999.90;;;;;;;;;;5071620;28;20035;-80
2020/12/09 02:24:02;;;;;;;1999.90;999.90;;;;;;;;;;5071062;28;20030;-80
2020/12/09 02:26:28;;;;;;;1999.90;999.90;;;;;;;;;;5071182;28;20044;-80
2020/12/09 02:28:54;;;;;;;1999.90;999.90;;;;;;;;;;5070885;28;20021;-81
2020/12/09 02:31:20;;;;;;;1999.90;999.90;;;;;;;;;;5069828;28;20040;-80
2020/12/09 02:33:46;;;;;;;1999.90;999.90;;;;;;;;;;5070322;28;20383;-80
2020/12/09 02:36:12;;;;;;;1999.90;999.90;;;;;;;;;;5071315;28;20031;-80
2020/12/09 02:38:38;;;;;;;1999.90;999.90;;;;;;;;;;5071693;28;20448;-80
2020/12/09 02:41:04;;;;;;;1999.90;999.90;;;;;;;;;;5070827;28;20044;-79
2020/12/09 02:43:30;;;;;;;1999.90;999.90;;;;;;;;;;5070524;28;20028;-80
2020/12/09 02:45:57;;;;;;;1999.90;999.90;;;;;;;;;;5070547;28;20029;-79
2020/12/09 02:48:23;;;;;;;1999.90;999.90;;;;;;;;;;5075450;28;20024;-80
2020/12/09 02:50:49;;;;;;;1999.90;999.90;;;;;;;;;;5073860;28;20032;-80
2020/12/09 02:53:15;;;;;;;1999.90;999.90;;;;;;;;;;5074438;28;20025;-81
2020/12/09 02:55:41;;;;;;;1999.90;999.90;;;;;;;;;;5072578;28;20583;-80
2020/12/09 02:58:07;;;;;;;1999.90;999.90;;;;;;;;;;5073721;28;20053;-81
2020/12/09 03:00:33;;;;;;;1999.90;999.90;;;;;;;;;;5074389;28;20438;-80
2020/12/09 03:02:59;;;;;;;1999.90;999.90;;;;;;;;;;5074025;28;20074;-80
2020/12/09 03:05:25;;;;;;;1999.90;999.90;;;;;;;;;;5075198;28;20047;-80
2020/12/09 03:07:51;;;;;;;1999.90;999.90;;;;;;;;;;5075009;28;20388;-80
2020/12/09 03:10:17;;;;;;;1999.90;999.90;;;;;;;;;;5074755;28;20128;-80
2020/12/09 03:12:43;;;;;;;1999.90;999.90;;;;;;;;;;5074631;28;20027;-81
2020/12/09 03:15:09;;;;;;;1999.90;999.90;;;;;;;;;;5074059;28;20372;-81
2020/12/09 03:17:35;;;;;;;1999.90;999.90;;;;;;;;;;5072150;28;20028;-80
2020/12/09 03:20:01;;;;;;;1999.90;999.90;;;;;;;;;;5074233;28;20056;-80
2020/12/09 03:22:27;;;;;;;1999.90;999.90;;;;;;;;;;5074828;28;20028;-80
2020/12/09 03:24:53;;;;;;;1999.90;999.90;;;;;;;;;;5074674;28;20029;-80
2020/12/09 03:27:19;;;;;;;1999.90;999.90;;;;;;;;;;5073754;28;20469;-81
2020/12/09 03:29:46;;;;;;;1999.90;999.90;;;;;;;;;;5073286;28;20517;-80
2020/12/09 03:32:12;;;;;;;1999.90;999.90;;;;;;;;;;5074559;28;20052;-80
2020/12/09 03:34:38;;;;;;;1999.90;999.90;;;;;;;;;;5073934;28;20032;-80
2020/12/09 03:37:05;;;;;;;1999.90;999.90;;;;;;;;;;5072558;28;20021;-80
2020/12/09 03:39:31;;;;;;;1999.90;999.90;;;;;;;;;;5070102;28;20515;-80
2020/12/09 03:41:57;;;;;;;1999.90;999.90;;;;;;;;;;5074361;28;20047;-81
2020/12/09 03:44:23;;;;;;;1999.90;999.90;;;;;;;;;;5071680;28;20652;-80
2020/12/09 03:46:49;;;;;;;1999.90;999.90;;;;;;;;;;5074701;28;20028;-81
2020/12/09 03:49:15;;;;;;;1999.90;999.90;;;;;;;;;;5067790;28;20025;-80
2020/12/09 03:51:41;;;;;;;1999.90;999.90;;;;;;;;;;5058994;28;20038;-80
2020/12/09 03:54:07;;;;;;;1999.90;999.90;;;;;;;;;;5072907;28;20016;-80
2020/12/09 03:56:33;;;;;;;1999.90;999.90;;;;;;;;;;5070468;28;20510;-80
2020/12/09 03:58:59;;;;;;;1999.90;999.90;;;;;;;;;;5069227;28;20072;-80
2020/12/09 04:01:25;;;;;;;1999.90;999.90;;;;;;;;;;5073274;28;20035;-80
2020/12/09 04:03:51;;;;;;;1999.90;999.90;;;;;;;;;;5074471;28;20028;-80
2020/12/09 04:06:17;;;;;;;1999.90;999.90;;;;;;;;;;5074919;28;20383;-80
2020/12/09 04:08:44;;;;;;;1999.90;999.90;;;;;;;;;;5075237;28;20032;-81
2020/12/09 04:11:10;;;;;;;1999.90;999.90;;;;;;;;;;5075061;28;20040;-81
2020/12/09 04:13:36;;;;;;;1999.90;999.90;;;;;;;;;;5075031;28;20028;-81
2020/12/09 04:16:02;;;;;;;1999.90;999.90;;;;;;;;;;5075469;28;20530;-81
2020/12/09 04:18:28;;;;;;;1999.90;999.90;;;;;;;;;;5075967;28;20016;-80
2020/12/09 04:20:54;;;;;;;1999.90;999.90;;;;;;;;;;5075851;28;20356;-79
2020/12/09 04:23:20;;;;;;;1999.90;999.90;;;;;;;;;;5075510;28;20035;-81
2020/12/09 04:25:46;;;;;;;1999.90;999.90;;;;;;;;;;5075051;28;20107;-80
2020/12/09 04:28:12;;;;;;;1999.90;999.90;;;;;;;;;;5077856;28;20032;-81
2020/12/09 04:30:38;;;;;;;1999.90;999.90;;;;;;;;;;5079865;28;20391;-80
2020/12/09 04:33:04;;;;;;;1999.90;999.90;;;;;;;;;;5075886;28;20032;-80
2020/12/09 04:35:30;;;;;;;1999.90;999.90;;;;;;;;;;5059324;28;20039;-80
2020/12/09 04:37:56;;;;;;;1999.90;999.90;;;;;;;;;;5079173;28;20031;-80
2020/12/09 04:40:24;;;;;;;1999.90;999.90;;;;;;;;;;5079209;28;20101;-80
2020/12/09 04:43:00;;;;;;;1999.90;999.90;;;;;;;;;;5092765;28;20538;-80
2020/12/09 04:45:32;;;;;;;1999.90;999.90;;;;;;;;;;5074289;28;20395;-80
2020/12/09 04:48:04;;;;;;;1999.90;999.90;;;;;;;;;;5092583;28;20044;-80
2020/12/09 04:50:34;;;;;;;1999.90;999.90;;;;;;;;;;5074259;28;20092;-80
2020/12/09 04:53:22;;;;;;;1999.90;999.90;;;;;;;;;;5084649;28;20029;-81
2020/12/09 04:55:53;;;;;;;1999.90;999.90;;;;;;;;;;5055111;28;20048;-81
2020/12/09 04:58:39;;;;;;;1999.90;999.90;;;;;;;;;;5072780;28;20044;-81
2020/12/09 05:01:06;;;;;;;1999.90;999.90;;;;;;;;;;5062085;28;20028;-81
2020/12/09 05:03:49;;;;;;;1999.90;999.90;;;;;;;;;;5072945;28;20025;-80
2020/12/09 05:06:15;;;;;;;1999.90;999.90;;;;;;;;;;5073136;28;20056;-81
2020/12/09 05:09:02;;;;;;;1999.90;999.90;;;;;;;;;;5072980;28;20035;-81
2020/12/09 05:11:28;;;;;;;1999.90;999.90;;;;;;;;;;5073124;28;20033;-81
2020/12/09 05:13:58;;;;;;;1999.90;999.90;;;;;;;;;;5072761;28;20020;-81
2020/12/09 05:16:25;;;;;;;1999.90;999.90;;;;;;;;;;5072871;28;20029;-82
2020/12/09 05:18:58;;;;;;;1999.90;999.90;;;;;;;;;;5081211;28;20043;-79
2020/12/09 05:21:26;;;;;;;1999.90;999.90;;;;;;;;;;5084674;28;20024;-80
2020/12/09 05:23:56;;;;;;;1999.90;999.90;;;;;;;;;;5079494;28;20028;-81
2020/12/09 05:26:25;;;;;;;1999.90;999.90;;;;;;;;;;5054090;28;20378;-80
2020/12/09 05:29:10;;;;;;;1999.90;999.90;;;;;;;;;;5053991;28;20556;-81
2020/12/09 05:31:37;;;;;;;1999.90;999.90;;;;;;;;;;5072303;28;20094;-81
2020/12/09 05:34:32;;;;;;;1999.90;999.90;;;;;;;;;;5071570;28;20421;-81
2020/12/09 05:37:05;;;;;;;1999.90;999.90;;;;;;;;;;5059018;28;20033;-81
2020/12/09 05:39:32;;;;;;;1999.90;999.90;;;;;;;;;;5071880;28;20051;-81
2020/12/09 05:41:58;;;;;;;1999.90;999.90;;;;;;;;;;5071795;28;20079;-80
2020/12/09 05:44:25;;;;;;;1999.90;999.90;;;;;;;;;;5072068;28;20025;-82
2020/12/09 05:46:54;;;;;;;1999.90;999.90;;;;;;;;;;5071606;28;20025;-80
2020/12/09 05:49:20;;;;;;;1999.90;999.90;;;;;;;;;;5071685;28;20083;-80
2020/12/09 05:52:03;;;;;;;1999.90;999.90;;;;;;;;;;5053816;28;20024;-80
2020/12/09 05:54:29;;;;;;;1999.90;999.90;;;;;;;;;;5072050;28;20272;-80
2020/12/09 05:56:56;;;;;;;1999.90;999.90;;;;;;;;;;5071463;28;20033;-80
2020/12/09 05:59:41;;;;;;;1999.90;999.90;;;;;;;;;;5071396;28;20438;-80
2020/12/09 06:02:14;;;;;;;1999.90;999.90;;;;;;;;;;5053609;28;20181;-79
2020/12/09 06:04:46;;;;;;;1999.90;999.90;;;;;;;;;;5052560;28;20656;-78
2020/12/09 06:07:12;;;;;;;1999.90;999.90;;;;;;;;;;5071259;28;20032;-79
2020/12/09 06:09:38;;;;;;;1999.90;999.90;;;;;;;;;;5071351;28;20024;-77
2020/12/09 06:12:05;;;;;;;1999.90;999.90;;;;;;;;;;5071345;28;20039;-78
2020/12/09 06:14:31;;;;;;;1999.90;999.90;;;;;;;;;;5071519;28;20536;-79
2020/12/09 06:16:57;;;;;;;1999.90;999.90;;;;;;;;;;5044267;28;20432;-83
2020/12/09 06:19:23;;;;;;;1999.90;999.90;;;;;;;;;;5069369;28;20031;-83
2020/12/09 06:21:56;;;;;;;1999.90;999.90;;;;;;;;;;5071355;28;20034;-83
2020/12/09 06:24:22;;;;;;;1999.90;999.90;;;;;;;;;;5074697;28;20510;-84
2020/12/09 06:26:51;;;;;;;1999.90;999.90;;;;;;;;;;5074338;28;20495;-82
2020/12/09 06:29:24;;;;;;;1999.90;999.90;;;;;;;;;;5074957;28;20485;-83
2020/12/09 06:32:00;;;;;;;1999.90;999.90;;;;;;;;;;5073688;28;20036;-82
2020/12/09 06:34:26;;;;;;;1999.90;999.90;;;;;;;;;;5072319;28;20025;-79
2020/12/09 06:37:09;;;;;;;1999.90;999.90;;;;;;;;;;5055376;28;20475;-79
2020/12/09 06:39:35;;;;;;;1999.90;999.90;;;;;;;;;;5074882;28;20147;-79
2020/12/09 06:42:05;;;;;;;1999.90;999.90;;;;;;;;;;5074996;28;20063;-88
2020/12/09 06:44:33;;;;;;;1999.90;999.90;;;;;;;;;;5076139;28;20044;-87
2020/12/09 06:46:59;;;;;;;1999.90;999.90;;;;;;;;;;5073742;28;20017;-88
2020/12/09 06:49:32;;;;;;;1999.90;999.90;;;;;;;;;;5078429;28;20024;-87
2020/12/09 06:52:10;;;;;;;1999.90;999.90;;;;;;;;;;5056370;28;20033;-87
2020/12/09 06:54:37;;;;;;;1999.90;999.90;;;;;;;;;;5073392;28;20032;-88
2020/12/09 06:57:33;;;;;;;1999.90;999.90;;;;;;;;;;5073401;28;20107;-88
2020/12/09 07:00:17;;;;;;;1999.90;999.90;;;;;;;;;;5029329;28;20094;-77
2020/12/09 07:02:44;;;;;;;1999.90;999.90;;;;;;;;;;5044342;28;20045;-80
2020/12/09 07:05:16;;;;;;;1999.90;999.90;;;;;;;;;;5040606;28;20631;-83
2020/12/09 07:07:44;;;;;;;1999.90;999.90;;;;;;;;;;5052652;28;20050;-87
2020/12/09 07:10:11;;;;;;;1999.90;999.90;;;;;;;;;;5046919;28;20099;-88
2020/12/09 07:12:37;;;;;;;1999.90;999.90;;;;;;;;;;5062424;28;20573;-92
2020/12/09 07:15:03;;;;;;;1999.90;999.90;;;;;;;;;;5040374;28;20116;-91
2020/12/09 07:17:31;;;;;;;1999.90;999.90;;;;;;;;;;5054761;28;20021;-92
2020/12/09 07:19:57;;;;;;;1999.90;999.90;;;;;;;;;;5054961;28;20490;-90
2020/12/09 07:22:24;;;;;;;1999.90;999.90;;;;;;;;;;5051966;28;20028;-84
2020/12/09 07:24:51;;;;;;;1999.90;999.90;;;;;;;;;;5044333;28;20037;-83
2020/12/09 07:27:18;;;;;;;1999.90;999.90;;;;;;;;;;5048464;28;20021;-85
2020/12/09 07:29:46;;;;;;;1999.90;999.90;;;;;;;;;;5049350;28;20483;-85
2020/12/09 07:32:17;;;;;;;1999.90;999.90;;;;;;;;;;5046539;28;20025;-88
2020/12/09 07:34:59;;;;;;;1999.90;999.90;;;;;;;;;;5052915;28;20045;-86
2020/12/09 07:37:27;;;;;;;1999.90;999.90;;;;;;;;;;5053450;28;20053;-81
2020/12/09 07:39:54;;;;;;;1999.90;999.90;;;;;;;;;;5046772;28;20108;-82
2020/12/09 07:42:22;;;;;;;1999.90;999.90;;;;;;;;;;5049071;28;20025;-77
2020/12/09 07:44:48;;;;;;;1999.90;999.90;;;;;;;;;;5052782;28;20083;-77
2020/12/09 07:47:20;;;;;;;1999.90;999.90;;;;;;;;;;5051199;28;20025;-77
2020/12/09 07:49:50;;;;;;;1999.90;999.90;;;;;;;;;;5053001;28;20025;-78
2020/12/09 07:52:27;;;;;;;1999.90;999.90;;;;;;;;;;5052151;28;20033;-78
2020/12/09 07:54:54;;;;;;;1999.90;999.90;;;;;;;;;;5053235;28;20025;-77
2020/12/09 07:57:20;;;;;;;1999.90;999.90;;;;;;;;;;5024940;28;20033;-79
2020/12/09 07:59:46;;;;;;;1999.90;999.90;;;;;;;;;;5067771;28;20098;-77
2020/12/09 08:02:19;;;;;;;1999.90;999.90;;;;;;;;;;5063956;28;20028;-76
2020/12/09 08:04:45;;;;;;;1999.90;999.90;;;;;;;;;;5067626;28;20031;-76
2020/12/09 08:07:15;;;;;;;1999.90;999.90;;;;;;;;;;5065112;28;20035;-77
2020/12/09 08:09:42;;;;;;;1999.90;999.90;;;;;;;;;;5069414;28;20059;-78
2020/12/09 08:12:08;;;;;;;1999.90;999.90;;;;;;;;;;5061863;28;20029;-75
2020/12/09 08:14:34;;;;;;;1999.90;999.90;;;;;;;;;;5068912;28;20028;-77
2020/12/09 08:17:00;;;;;;;1999.90;999.90;;;;;;;;;;5061440;28;20040;-77
2020/12/09 08:19:26;;;;;;;1999.90;999.90;;;;;;;;;;5055017;28;20024;-77
2020/12/09 08:22:05;;;;;;;1999.90;999.90;;;;;;;;;;5064648;28;20369;-77
2020/12/09 08:24:31;;;;;;;1999.90;999.90;;;;;;;;;;5064697;28;20063;-78
2020/12/09 08:26:57;;;;;;;1999.90;999.90;;;;;;;;;;5061160;28;20074;-78
2020/12/09 08:29:23;;;;;;;1999.90;999.90;;;;;;;;;;5062832;28;20643;-78
2020/12/09 08:32:01;;;;;;;1999.90;999.90;;;;;;;;;;5065606;28;20041;-78
2020/12/09 08:34:27;;;;;;;1999.90;999.90;;;;;;;;;;5069755;28;20107;-77
2020/12/09 08:36:53;;;;;;;1999.90;999.90;;;;;;;;;;5065449;28;20025;-77
2020/12/09 08:39:19;;;;;;;1999.90;999.90;;;;;;;;;;5068524;28;20025;-76
2020/12/09 08:41:47;;;;;;;1999.90;999.90;;;;;;;;;;5065873;28;20415;-78
2020/12/09 08:44:13;;;;;;;1999.90;999.90;;;;;;;;;;5069523;28;20024;-78
2020/12/09 08:46:39;;;;;;;1999.90;999.90;;;;;;;;;;5066153;28;20036;-77
2020/12/09 08:49:05;;;;;;;1999.90;999.90;;;;;;;;;;5065549;28;20395;-79
2020/12/09 08:51:32;;;;;;;1999.90;999.90;;;;;;;;;;5071805;28;20039;-77
2020/12/09 08:53:58;;;;;;;1999.90;999.90;;;;;;;;;;5068756;28;20100;-78
2020/12/09 08:56:28;;;;;;;1999.90;999.90;;;;;;;;;;5070075;28;20475;-78
2020/12/09 08:58:55;;;;;;;1999.90;999.90;;;;;;;;;;5071857;28;20036;-77
2020/12/09 09:01:21;;;;;;;1999.90;999.90;;;;;;;;;;5071397;28;20040;-78
2020/12/09 09:03:52;;;;;;;1999.90;999.90;;;;;;;;;;5072140;28;20078;-78
2020/12/09 09:06:18;;;;;;;1999.90;999.90;;;;;;;;;;5070482;28;20024;-78
2020/12/09 09:08:44;;;;;;;1999.90;999.90;;;;;;;;;;5070651;28;20063;-78
2020/12/09 09:11:10;;;;;;;1999.90;999.90;;;;;;;;;;5067018;28;20072;-78
2020/12/09 09:13:36;;;;;;;1999.90;999.90;;;;;;;;;;5056968;28;20047;-79
2020/12/09 09:16:06;;;;;;;1999.90;999.90;;;;;;;;;;5053232;28;20024;-78
2020/12/09 09:18:32;;;;;;;1999.90;999.90;;;;;;;;;;5070352;28;20118;-78
2020/12/09 09:20:58;;;;;;;1999.90;999.90;;;;;;;;;;5069504;28;20029;-78
2020/12/09 09:23:25;;;;;;;1999.90;999.90;;;;;;;;;;5065002;28;20033;-78
2020/12/09 09:25:51;;;;;;;1999.90;999.90;;;;;;;;;;5060667;28;20512;-76
2020/12/09 09:28:17;;;;;;;1999.90;999.90;;;;;;;;;;5064911;28;20434;-79
2020/12/09 09:30:43;;;;;;;1999.90;999.90;;;;;;;;;;5044159;28;20037;-78
2020/12/09 09:33:09;;;;;;;1999.90;999.90;;;;;;;;;;5063103;28;20025;-78
2020/12/09 09:35:36;;;;;;;1999.90;999.90;;;;;;;;;;5071229;28;20081;-76
2020/12/09 09:38:01;;;;;;;1999.90;999.90;;;;;;;;;;5069505;28;20024;-79
2020/12/09 09:40:27;;;;;;;1999.90;999.90;;;;;;;;;;5068957;28;20028;-79
2020/12/09 09:42:54;;;;;;;1999.90;999.90;;;;;;;;;;5064232;28;20394;-78
2020/12/09 09:45:22;;;;;;;1999.90;999.90;;;;;;;;;;5049120;28;20044;-79
2020/12/09 09:47:48;;;;;;;1999.90;999.90;;;;;;;;;;5063029;28;20036;-77
2020/12/09 09:50:14;;;;;;;1999.90;999.90;;;;;;;;;;5064524;28;20039;-79
2020/12/09 09:52:40;;;;;;;1999.90;999.90;;;;;;;;;;5065930;28;20032;-78
2020/12/09 09:55:06;;;;;;;1999.90;999.90;;;;;;;;;;5070164;28;20025;-78
2020/12/09 09:57:33;;;;;;;1999.90;999.90;;;;;;;;;;5067235;28;20541;-78
2020/12/09 09:59:59;;;;;;;1999.90;999.90;;;;;;;;;;5054793;28;20556;-78
2020/12/09 10:02:25;;;;;;;1999.90;999.90;;;;;;;;;;5056946;28;20025;-79
2020/12/09 10:04:53;;;;;;;1999.90;999.90;;;;;;;;;;5066940;28;20025;-82
2020/12/09 10:07:19;;;;;;;1999.90;999.90;;;;;;;;;;5061336;28;20151;-78
2020/12/09 10:09:45;;;;;;;1999.90;999.90;;;;;;;;;;5064159;28;20048;-78
2020/12/09 10:12:11;;;;;;;1999.90;999.90;;;;;;;;;;5059029;28;20475;-78
2020/12/09 10:14:37;;;;;;;1999.90;999.90;;;;;;;;;;5063199;28;20658;-77
2020/12/09 10:17:03;;;;;;;1999.90;999.90;;;;;;;;;;5068809;28;20020;-78
2020/12/09 10:19:29;;;;;;;1999.90;999.90;;;;;;;;;;5067296;28;20028;-78
2020/12/09 10:21:59;;;;;;;1999.90;999.90;;;;;;;;;;5065057;28;20036;-79
2020/12/09 10:24:25;;;;;;;1999.90;999.90;;;;;;;;;;5062658;28;20078;-78
2020/12/09 10:26:51;;;;;;;1999.90;999.90;;;;;;;;;;5051758;28;20024;-78
2020/12/09 10:29:17;;;;;;;1999.90;999.90;;;;;;;;;;5061549;28;20398;-78
2020/12/09 10:31:47;;;;;;;1999.90;999.90;;;;;;;;;;5047819;28;20033;-78
2020/12/09 10:34:14;;;;;;;1999.90;999.90;;;;;;;;;;5056108;28;20624;-78
2020/12/09 10:36:44;;;;;;;1999.90;999.90;;;;;;;;;;5040996;28;20487;-78
2020/12/09 10:39:10;;;;;;;1999.90;999.90;;;;;;;;;;5052043;28;20491;-78
2020/12/09 10:41:40;;;;;;;1999.90;999.90;;;;;;;;;;5065140;28;20028;-78
2020/12/09 10:44:06;;;;;;;1999.90;999.90;;;;;;;;;;5069360;28;20478;-77
2020/12/09 10:46:33;;;;;;;1999.90;999.90;;;;;;;;;;5061818;28;20025;-77
2020/12/09 10:48:59;;;;;;;1999.90;999.90;;;;;;;;;;5068886;28;20060;-78
2020/12/09 10:51:26;;;;;;;1999.90;999.90;;;;;;;;;;5068928;28;20033;-77
2020/12/09 10:53:52;;;;;;;1999.90;999.90;;;;;;;;;;5069276;28;20019;-78
2020/12/09 10:56:28;;;;;;;1999.90;999.90;;;;;;;;;;5064905;28;20039;-79
2020/12/09 10:58:55;;;;;;;1999.90;999.90;;;;;;;;;;5062799;28;20054;-78
2020/12/09 11:01:22;;;;;;;1999.90;999.90;;;;;;;;;;5068568;28;20067;-82
2020/12/09 11:03:48;;;;;;;1999.90;999.90;;;;;;;;;;5060968;28;20390;-84
2020/12/09 11:06:14;;;;;;;1999.90;999.90;;;;;;;;;;5047290;28;20025;-83
2020/12/09 11:08:40;;;;;;;1999.90;999.90;;;;;;;;;;5071150;28;20135;-84
2020/12/09 11:11:06;;;;;;;1999.90;999.90;;;;;;;;;;5069355;28;20040;-83
2020/12/09 11:13:32;;;;;;;1999.90;999.90;;;;;;;;;;5065940;28;20024;-83
2020/12/09 11:15:58;;;;;;;1999.90;999.90;;;;;;;;;;5072007;28;20033;-83
2020/12/09 11:18:25;;;;;;;1999.90;999.90;;;;;;;;;;5054968;28;20028;-83
2020/12/09 11:20:51;;;;;;;1999.90;999.90;;;;;;;;;;5064587;28;20033;-82
2020/12/09 11:23:17;;;;;;;1999.90;999.90;;;;;;;;;;5058106;28;20482;-81
2020/12/09 11:25:43;;;;;;;1999.90;999.90;;;;;;;;;;5060212;28;20032;-81
2020/12/09 11:28:09;;;;;;;1999.90;999.90;;;;;;;;;;5067076;28;20430;-81
2020/12/09 11:30:35;;;;;;;1999.90;999.90;;;;;;;;;;5066833;28;20226;-81
2020/12/09 11:33:01;;;;;;;1999.90;999.90;;;;;;;;;;5070980;28;20191;-80
2020/12/09 11:35:27;;;;;;;1999.90;999.90;;;;;;;;;;5072305;28;20053;-81
2020/12/09 11:37:55;;;;;;;1999.90;999.90;;;;;;;;;;5072274;28;20027;-81
2020/12/09 11:40:25;;;;;;;1999.90;999.90;;;;;;;;;;5072649;28;20025;-82
2020/12/09 11:42:51;;;;;;;1999.90;999.90;;;;;;;;;;5072449;28;20491;-80
2020/12/09 11:45:17;;;;;;;1999.90;999.90;;;;;;;;;;5054742;28;20045;-82
2020/12/09 11:47:43;;;;;;;1999.90;999.90;;;;;;;;;;5073589;28;20108;-83
2020/12/09 11:50:09;;;;;;;1999.90;999.90;;;;;;;;;;5070478;28;20040;-82
2020/12/09 11:52:35;;;;;;;1999.90;999.90;;;;;;;;;;5077876;28;20022;-79
2020/12/09 11:55:01;;;;;;;1999.90;999.90;;;;;;;;;;5067869;28;20032;-81
2020/12/09 11:57:27;;;;;;;1999.90;999.90;;;;;;;;;;5068623;28;20020;-80
2020/12/09 11:59:53;;;;;;;1999.90;999.90;;;;;;;;;;5068208;28;20098;-82
2020/12/09 12:02:19;;;;;;;1999.90;999.90;;;;;;;;;;5068890;28;20106;-81
2020/12/09 12:04:48;;;;;;;1999.90;999.90;;;;;;;;;;5069842;28;20788;-79
2020/12/09 12:07:14;;;;;;;1999.90;999.90;;;;;;;;;;5070085;28;20028;-80
2020/12/09 12:09:42;;;;;;;1999.90;999.90;;;;;;;;;;5073831;28;20032;-78
2020/12/09 12:12:08;;;;;;;1999.90;999.90;;;;;;;;;;5071526;28;20052;-78
2020/12/09 12:14:35;;;;;;;1999.90;999.90;;;;;;;;;;5070407;28;20016;-78
2020/12/09 12:17:01;;;;;;;1999.90;999.90;;;;;;;;;;5064515;28;20033;-79
2020/12/09 12:19:27;;;;;;;1999.90;999.90;;;;;;;;;;5052673;28;20028;-78
2020/12/09 12:21:53;;;;;;;1999.90;999.90;;;;;;;;;;5069601;28;20032;-78
2020/12/09 12:24:19;;;;;;;1999.90;999.90;;;;;;;;;;5071968;28;20032;-79
2020/12/09 12:26:46;;;;;;;1999.90;999.90;;;;;;;;;;5070451;28;20407;-78
2020/12/09 12:29:12;;;;;;;1999.90;999.90;;;;;;;;;;5069203;28;20103;-78
2020/12/09 12:31:38;;;;;;;1999.90;999.90;;;;;;;;;;5069369;28;20057;-78
2020/12/09 12:34:04;;;;;;;1999.90;999.90;;;;;;;;;;5068637;28;20031;-77
2020/12/09 12:36:30;;;;;;;1999.90;999.90;;;;;;;;;;5068672;28;20029;-78
2020/12/09 12:38:56;;;;;;;1999.90;999.90;;;;;;;;;;5070161;28;20029;-78
2020/12/09 12:41:22;;;;;;;1999.90;999.90;;;;;;;;;;5069209;28;20394;-78
2020/12/09 12:43:49;;;;;;;1999.90;999.90;;;;;;;;;;5068101;28;20463;-78
2020/12/09 12:46:15;;;;;;;1999.90;999.90;;;;;;;;;;5068400;28;20056;-78
2020/12/09 12:48:41;;;;;;;1999.90;999.90;;;;;;;;;;5068164;28;20458;-78
2020/12/09 12:51:07;;;;;;;1999.90;999.90;;;;;;;;;;5073440;28;20441;-77
2020/12/09 12:53:33;;;;;;;1999.90;999.90;;;;;;;;;;5074575;28;20021;-79
2020/12/09 12:56:00;;;;;;;1999.90;999.90;;;;;;;;;;5056477;28;20546;-78
2020/12/09 12:58:28;;;;;;;1999.90;999.90;;;;;;;;;;5075676;28;20100;-80
2020/12/09 13:00:54;;;;;;;1999.90;999.90;;;;;;;;;;5090520;28;20087;-78
2020/12/09 13:03:20;;;;;;;1999.90;999.90;;;;;;;;;;5090637;28;20025;-79
2020/12/09 13:05:46;;;;;;;1999.90;999.90;;;;;;;;;;5080895;28;20545;-76
2020/12/09 13:08:12;;;;;;;1999.90;999.90;;;;;;;;;;5088426;28;21388;-79
2020/12/09 13:10:38;;;;;;;1999.90;999.90;;;;;;;;;;5073463;28;20068;-80
2020/12/09 13:13:04;;;;;;;1999.90;999.90;;;;;;;;;;5070247;28;20021;-79
2020/12/09 13:15:30;;;;;;;1999.90;999.90;;;;;;;;;;5071412;28;20032;-78
2020/12/09 13:17:56;;;;;;;1999.90;999.90;;;;;;;;;;5072764;28;20024;-79
2020/12/09 13:20:23;;;;;;;1999.90;999.90;;;;;;;;;;5071667;28;20035;-79
2020/12/09 13:22:49;;;;;;;1999.90;999.90;;;;;;;;;;5069957;28;20077;-79
2020/12/09 13:25:15;;;;;;;1999.90;999.90;;;;;;;;;;5064847;28;20055;-79
2020/12/09 13:27:41;;;;;;;1999.90;999.90;;;;;;;;;;5052312;28;20426;-78
2020/12/09 13:30:07;;;;;;;1999.90;999.90;;;;;;;;;;5068505;28;20024;-78
2020/12/09 13:32:33;;;;;;;1999.90;999.90;;;;;;;;;;5071052;28;20051;-80
2020/12/09 13:34:59;;;;;;;1999.90;999.90;;;;;;;;;;5066198;28;20027;-78
2020/12/09 13:37:27;;;;;;;1999.90;999.90;;;;;;;;;;5048641;28;20039;-79
2020/12/09 13:39:53;;;;;;;1999.90;999.90;;;;;;;;;;5062228;28;20052;-79
2020/12/09 13:42:21;;;;;;;1999.90;999.90;;;;;;;;;;5070756;28;20384;-78